TOURFACTS.DK  
Stats and Facts from Tour de France.

Tour de France 2019 starts in 323 days
  Riders   Stages   Teams   Summits   Yearly  


 
Search by year

After 2018 - Stage 21:
 15000 starters.
  5165 different riders.
  638 teams.
  2253 stages.
  456 restdays.
  442940.60 km.
  5684 abandonnees.


Top 3
GC
Geraint Thomas83:17:13
Tom Dumoulin83:19:04
Christopher Froome83:19:37
Climb
Julian Alaphilippe170 pt.
Warren Barguil91 pt.
Rafal Majka76 pt.
Sprint
Peter Sagan477 pt.
Alexander Kristoff246 pt.
Arnaud Démare203 pt.
Youth
Pierre-Roger Latou..83:39:26
Egan Bernal83:45:05
Guillaume Martin84:01:31
Facts from Tour de France 2017
  |   Stages.  |   Stage winners.  |   Days in yellow  |   Average speed.  |   Route.  |   Teams.  |   All riders.  |   Rookies.  |  

  |   Withdrawls.  |   GC.  |   Polka  |   Green  |   White  |   Summits. (In tour)  |   Miscellaneous.  |  

Stage 15 on 16 - 07 - 2017
         Owning:    Christopher Froome      Warren Barguil      Marcel Kittel      Simon Yates  

Pick a stage:  1 2 3 4 5 6 7 8 9 10 11 12 13 14 15 16 17 18 19 20 21
  Laissac-Sévérac l´ÉgliseLe Puy-en-Velay | Dist: 189.50 km.
Cat: 1Montée de Naves d'AubracFRAWarren Barguil10 points 
Cat: 3Côte de VieuralsFRAWarren Barguil2 points 
Cat: 1Col de Peyra TailladeFRAWarren Barguil10 points 
Cat: 4Côte de Saint-VidalNEDBauke Mollema1 points 

Average speed for all riders in stage:  37,984 km./hr.
    Place:Name:Team:Time:Km/h:
1
NEDBauke MollemaUSATrek - Segafredo04:41:47  +  00:00:00=40,350 
2
ITADiego UlissiUAEUAE Team Emirates04:42:06  +  00:00:19=40,305 
3
FRATony GallopinBELLotto Soudal04:42:06  +  00:00:19=40,305 
44 SLOPrimoz RoglicNLDTeam Lotto NL - Jumbo04:42:06  +  00:00:19=40,305 
55 FRAWarren BarguilDEUTeam Sunweb04:42:10  +  00:00:23=40,295 
66 FRANicolas RocheUSABMC Racing Team04:42:47  +  00:01:00=40,207 
77 FRALilian CalmejaneFRADirect Energie04:42:51  +  00:01:04=40,198 
88 BELJan BakelantsFRAAg2r La Mondiale04:42:51  +  00:01:04=40,198 
99 FRAThibaut PinotFRAFDJ04:42:51  +  00:01:04=40,198 
1010 BELSerge PauwelsZAFDimension Data04:35:13  +  -00:06:34=41,313 
1111 BELTiesj BenootBELLotto Soudal04:42:51  +  00:01:04=40,198 
1212 ITADamiano CarusoUSABMC Racing Team04:42:51  +  00:01:04=40,198 
1313 ESPDaniel NavarroFRACofidis – Solutions Crédits04:42:51  +  00:01:04=40,198 
1414 FRAPierre-Luc PérichonFRAFortuneo - Vital Concept04:42:59  +  00:01:12=40,179 
1515 FRAAmaël MoinardUSABMC Racing Team04:42:59  +  00:01:12=40,179 
1616 AUSMichael MatthewsDEUTeam Sunweb04:46:51  +  00:05:04=39,637 
1717 NEDMaurits LammertinkCHETeam Katusha - Alpecin04:46:54  +  00:05:07=39,631 
1818 ESPLuis Angel MateFRACofidis – Solutions Crédits04:47:01  +  00:05:14=39,614 
1919 FRARomain HardyFRAFortuneo - Vital Concept04:47:01  +  00:05:14=39,614 
2020 GERTony MartinCHETeam Katusha - Alpecin04:47:01  +  00:05:14=39,614 
2121 ITAAlessandro De MarchiUSABMC Racing Team04:47:27  +  00:05:40=39,555 
2222 BELThomas De GendtBELLotto Soudal04:47:58  +  00:06:11=39,484 
2323 ETHTsgabu Gebremaryan GrmayBHRBahrain-Merida04:47:58  +  00:06:11=39,484 
2424 GERSimon GeschkeDEUTeam Sunweb04:47:58  +  00:06:11=39,484 
2525 ENGDaniel MartinBELQuick-Step Floors04:47:58  +  00:06:11=39,484 
2626 HRVRobert KiserlovskiCHETeam Katusha - Alpecin04:48:07  +  00:06:20=39,463 
2727 ENGSimon YatesAUSOrica - Scott04:48:12  +  00:06:25=39,452 
2828 KENChristopher FroomeGBRSky Procycling04:48:12  +  00:06:25=39,452 
2929 COLRigoberto UránUSACannondale-Drapac Pro Cycling ..04:48:12  +  00:06:25=39,452 
3030 FRAAlexis VuillermozFRAAg2r La Mondiale04:48:12  +  00:06:25=39,452 
3131 ITAFabio AruKAZAstana Pro Team04:48:12  +  00:06:25=39,452 
3232 NZLGeorge BennettNLDTeam Lotto NL - Jumbo04:48:12  +  00:06:25=39,452 
3333 FRARomain BardetFRAAg2r La Mondiale04:48:12  +  00:06:25=39,452 
3434 RSALouis MeintjesUAEUAE Team Emirates04:48:12  +  00:06:25=39,452 
3535 ESPMikel Landa MeanaGBRSky Procycling04:48:12  +  00:06:25=39,452 
3636 ESPAlberto ContadorUSATrek - Segafredo04:48:12  +  00:06:25=39,452 
3737 FRARomain SicardFRADirect Energie04:48:19  +  00:06:32=39,436 
3838 FRAPierre-Roger LatourFRAAg2r La Mondiale04:50:57  +  00:09:10=39,079 
3939 GEREmanuel BuchmannDEUBora–Hansgrohe04:50:57  +  00:09:10=39,079 
4040 HRVKristijan DurasekUAEUAE Team Emirates04:50:57  +  00:09:10=39,079 
4141 CZERoman KreuzigerAUSOrica - Scott04:50:59  +  00:09:12=39,074 
4242 NEDDylan Van BaarleUSACannondale-Drapac Pro Cycling ..04:51:04  +  00:09:17=39,063 
4343 SUIMathias FrankFRAAg2r La Mondiale04:51:04  +  00:09:17=39,063 
4444 COLCarlos Alberto BetancurESPMovistar Team04:52:06  +  00:10:19=38,925 
4545 FRABrice FeilluFRAFortuneo - Vital Concept04:52:06  +  00:10:19=38,925 
4646 COLNairo QuintanaESPMovistar Team04:52:06  +  00:10:19=38,925 
4747 ESPMikel NieveGBRSky Procycling04:52:06  +  00:10:19=38,925 
4848 ITAAlberto BettiolUSACannondale-Drapac Pro Cycling ..04:52:06  +  00:10:19=38,925 
4949 FRAPierre RollandUSACannondale-Drapac Pro Cycling ..04:52:06  +  00:10:19=38,925 
5050 FRASylvain ChavanelFRADirect Energie04:52:06  +  00:10:19=38,925 
5151 KAZAndrey ZeitsKAZAstana Pro Team04:52:06  +  00:10:19=38,925 
5252 FRAGuillaume MartinBELWanty – Groupe Gobert04:53:27  +  00:11:40=38,746 
5353 COLJarlinson Pantano GomezUSATrek - Segafredo04:53:27  +  00:11:40=38,746 
5454 RSADaryl ImpeyAUSOrica - Scott04:53:27  +  00:11:40=38,746 
5555 FRACyril GautierFRAAg2r La Mondiale04:53:27  +  00:11:40=38,746 
5656 SLOJanez BrajkovicBHRBahrain-Merida04:53:27  +  00:11:40=38,746 
5757 LUXBen GastauerFRAAg2r La Mondiale04:53:27  +  00:11:40=38,746 
5858 COLSergio Luis HenaoGBRSky Procycling04:53:27  +  00:11:40=38,746 
5959 USANathan BrownUSACannondale-Drapac Pro Cycling ..04:53:27  +  00:11:40=38,746 
6060 CRCAndrey AmadorESPMovistar Team04:53:27  +  00:11:40=38,746 
6161 GERMarcus BurghardtDEUBora–Hansgrohe04:59:47  +  00:18:00=37,927 
6262 BELPhilippe GilbertBELQuick-Step Floors04:59:47  +  00:18:00=37,927 
6363 NEDKoen De KortUSATrek - Segafredo04:59:47  +  00:18:00=37,927 
6464 ITAMarco MarcatoUAEUAE Team Emirates04:59:47  +  00:18:00=37,927 
6565 GERJasha SütterlinESPMovistar Team04:59:47  +  00:18:00=37,927 
6666 BELJens KeukeleireAUSOrica - Scott04:59:47  +  00:18:00=37,927 
6767 JPNYukiya ArashiroBHRBahrain-Merida04:59:47  +  00:18:00=37,927 
6868 FRAElie GesbertFRAFortuneo - Vital Concept04:59:47  +  00:18:00=37,927 
6969 NEDMarco MinnaardBELWanty – Groupe Gobert04:59:47  +  00:18:00=37,927 
7070 AUSDamien HowsonAUSOrica - Scott04:59:47  +  00:18:00=37,927 
7171 BELThomas DegandBELWanty – Groupe Gobert04:59:47  +  00:18:00=37,927 
7272 ENGBen SwiftUAEUAE Team Emirates04:59:47  +  00:18:00=37,927 
7373 SUIStefan KüngUSABMC Racing Team04:59:47  +  00:18:00=37,927 
7474 FRAAxel DomontFRAAg2r La Mondiale04:59:47  +  00:18:00=37,927 
7575 SUIDanilo WyssUSABMC Racing Team04:59:47  +  00:18:00=37,927 
7676 SUIMichael SchärUSABMC Racing Team04:59:47  +  00:18:00=37,927 
7777 FRARudy MolardFRAFDJ04:59:47  +  00:18:00=37,927 
7878 FRAFlorian VachonFRAFortuneo - Vital Concept04:59:47  +  00:18:00=37,927 
7979 FRACyril LemoineFRACofidis – Solutions Crédits04:59:47  +  00:18:00=37,927 
8080 BELGreg Van AvermaetUSABMC Racing Team04:59:47  +  00:18:00=37,927 
8181 BELOliver NaesenFRAAg2r La Mondiale04:59:47  +  00:18:00=37,927 
8282 DENMichael ValgrenKAZAstana Pro Team04:59:47  +  00:18:00=37,927 
8383 USAAndrew TalanskyUSACannondale-Drapac Pro Cycling ..04:59:47  +  00:18:00=37,927 
8484 KAZDmitriy GruzdevKAZAstana Pro Team04:59:47  +  00:18:00=37,927 
8585 KAZAlexey LutsenkoKAZAstana Pro Team04:59:47  +  00:18:00=37,927 
8686 ESPImanol ErvitiESPMovistar Team04:59:47  +  00:18:00=37,927 
8787 ESPJonathan CastroviejoESPMovistar Team04:59:47  +  00:18:00=37,927 
8888 ESPJesus HerradaESPMovistar Team04:59:47  +  00:18:00=37,927 
8989 UKRAndriy GrivkoKAZAstana Pro Team04:59:47  +  00:18:00=37,927 
9090 FRAAngelo TulikFRADirect Energie04:59:47  +  00:18:00=37,927 
9191 NEDLaurens ten DamDEUTeam Sunweb04:59:47  +  00:18:00=37,927 
9292 ITADaniele BennatiESPMovistar Team04:59:47  +  00:18:00=37,927 
9393 ITAMatteo BonoUAEUAE Team Emirates04:59:47  +  00:18:00=37,927 
9494 BELGuillaume Van KeirsbulckBELWanty – Groupe Gobert05:02:26  +  00:20:39=37,595 
9595 FRAAdrien PetitFRADirect Energie05:02:26  +  00:20:39=37,595 
9696 FRANicolas EdetFRACofidis – Solutions Crédits05:02:26  +  00:20:39=37,595 
9797 FRAMaxime BouetFRAFortuneo - Vital Concept05:02:26  +  00:20:39=37,595 
9898 ARGEduardo SepulvedaFRAFortuneo - Vital Concept05:02:26  +  00:20:39=37,595 
9999 ESPHaimar ZubeldiaUSATrek - Segafredo05:02:26  +  00:20:39=37,595 
100100 GERPaul MartensNLDTeam Lotto NL - Jumbo05:02:26  +  00:20:39=37,595 
101101 ITAFabio SabatiniBELQuick-Step Floors05:05:23  +  00:23:36=37,232 
102102 SUIMichael AlbasiniAUSOrica - Scott05:05:23  +  00:23:36=37,232 
103103 NEDRoy CurversDEUTeam Sunweb05:05:23  +  00:23:36=37,232 
104104 FRAYoann OffredoBELWanty – Groupe Gobert05:05:23  +  00:23:36=37,232 
105105 CZEOndrej CinkBHRBahrain-Merida05:05:23  +  00:23:36=37,232 
106106 CZEZdenek StybarBELQuick-Step Floors05:05:23  +  00:23:36=37,232 
107107 FRAFlorian SénéchalFRACofidis – Solutions Crédits05:05:23  +  00:23:36=37,232 
108108 ITAAndrea PasqualonBELWanty – Groupe Gobert05:05:23  +  00:23:36=37,232 
109109 BLRVasil KiryienkaGBRSky Procycling05:05:23  +  00:23:36=37,232 
110110 NEDTom LeezerNLDTeam Lotto NL - Jumbo05:05:23  +  00:23:36=37,232 
111111 AUSMathew HaymanAUSOrica - Scott05:05:23  +  00:23:36=37,232 
112112 COLJohan Esteban ChavesAUSOrica - Scott05:05:23  +  00:23:36=37,232 
113113 ESPMarkel IrizarUSATrek - Segafredo05:05:23  +  00:23:36=37,232 
114114 AUTMichael GoglUSATrek - Segafredo05:05:23  +  00:23:36=37,232 
115115 FRAOlivier Le GacFRAFDJ05:05:23  +  00:23:36=37,232 
116116 COLDarwin AtapumaUAEUAE Team Emirates05:05:23  +  00:23:36=37,232 
117117 RSAReinardt Janse Van RensburgZAFDimension Data05:05:23  +  00:23:36=37,232 
118118 NZLJack BauerBELQuick-Step Floors05:08:19  +  00:26:32=36,878 
119119 AUSAdam HansenBELLotto Soudal05:08:19  +  00:26:32=36,878 
120120 NZLDion SmithBELWanty – Groupe Gobert05:08:19  +  00:26:32=36,878 
121121 GERRick ZabelCHETeam Katusha - Alpecin05:08:19  +  00:26:32=36,878 
122122 GERRobert WagnerNLDTeam Lotto NL - Jumbo05:08:19  +  00:26:32=36,878 
123123 GERJohn DegenkolbUSATrek - Segafredo05:08:19  +  00:26:32=36,878 
124124 FRANacer BouhanniFRACofidis – Solutions Crédits05:08:19  +  00:26:32=36,878 
125125 BELJulien VermoteBELQuick-Step Floors05:08:19  +  00:26:32=36,878 
126126 GERNils PolittCHETeam Katusha - Alpecin05:08:19  +  00:26:32=36,878 
127127 GERMarcel KittelBELQuick-Step Floors05:08:19  +  00:26:32=36,878 
128128 GERNikias ArndtDEUTeam Sunweb05:08:19  +  00:26:32=36,878 
129129 NZLPaddy BevinUSACannondale-Drapac Pro Cycling ..05:08:19  +  00:26:32=36,878 
130130 AUTBernhard EiselZAFDimension Data05:08:19  +  00:26:32=36,878 
131131 GERMarcel SiebergBELLotto Soudal05:08:19  +  00:26:32=36,878 
132132 BELJürgen RoelandtsBELLotto Soudal05:08:19  +  00:26:32=36,878 
133133 AUTMarco HallerCHETeam Katusha - Alpecin05:08:19  +  00:26:32=36,878 
134134 NOREdvald Boasson HagenZAFDimension Data05:08:19  +  00:26:32=36,878 
135135 NORAlexander KristoffCHETeam Katusha - Alpecin05:08:19  +  00:26:32=36,878 
136136 FRAPerrig QuemeneurFRADirect Energie05:08:19  +  00:26:32=36,878 
137137 BELFrederik BackaertBELWanty – Groupe Gobert05:08:19  +  00:26:32=36,878 
138138 NEDRamon SinkeldamDEUTeam Sunweb05:08:19  +  00:26:32=36,878 
139139 DENLars BakBELLotto Soudal05:08:19  +  00:26:32=36,878 
140140 NEDTimo RoosenNLDTeam Lotto NL - Jumbo05:08:19  +  00:26:32=36,878 
141141 POLPawel PoljanskiDEUBora–Hansgrohe05:08:19  +  00:26:32=36,878 
142142 ENGScott ThwaitesZAFDimension Data05:08:19  +  00:26:32=36,878 
143143 SUIReto HollensteinCHETeam Katusha - Alpecin05:08:19  +  00:26:32=36,878 
144144 GERChristian KneesGBRSky Procycling05:08:19  +  00:26:32=36,878 
145145 ITASonny ColbrelliBHRBahrain-Merida05:08:19  +  00:26:32=36,878 
146146 ESPJavier Moreno BazánBHRBahrain-Merida05:08:19  +  00:26:32=36,878 
147147 WALLuke RoweGBRSky Procycling05:08:19  +  00:26:32=36,878 
148148 AUSSimon ClarkeUSACannondale-Drapac Pro Cycling ..05:08:19  +  00:26:32=36,878 
149149 SLOGrega BoleBHRBahrain-Merida05:08:19  +  00:26:32=36,878 
150150 GERAndré GreipelBELLotto Soudal05:08:19  +  00:26:32=36,878 
151151 SLOBorut BozicBHRBahrain-Merida05:08:19  +  00:26:32=36,878 
152152 NORVegard Stake LaengenUAEUAE Team Emirates05:08:19  +  00:26:32=36,878 
153153 FRAJulien SimonFRACofidis – Solutions Crédits05:08:19  +  00:26:32=36,878 
154154 FRAThomas VoecklerFRADirect Energie05:08:19  +  00:26:32=36,878 
155155 ITADavide CimolaiFRAFDJ05:08:19  +  00:26:32=36,878 
156156 FRALaurent PichonFRAFortuneo - Vital Concept05:08:19  +  00:26:32=36,878 
157157 ENGStephen CummingsZAFDimension Data05:08:19  +  00:26:32=36,878 
158158 RSAJaco VenterZAFDimension Data05:08:19  +  00:26:32=36,878 
159159 AUSJay McCarthyDEUBora–Hansgrohe05:08:19  +  00:26:32=36,878 
160160 DDRRüdiger SeligDEUBora–Hansgrohe05:08:19  +  00:26:32=36,878 
161161 NEDDylan GroenewegenNLDTeam Lotto NL - Jumbo05:08:19  +  00:26:32=36,878 
162162 NEDMike TeunissenDEUTeam Sunweb05:08:19  +  00:26:32=36,878 
163163 NEDAlbert TimmerDEUTeam Sunweb05:08:19  +  00:26:32=36,878 
164164 PORTiago PintoCHETeam Katusha - Alpecin05:08:19  +  00:26:32=36,878 
165165 KAZBakhtiyar KozhatayevKAZAstana Pro Team05:08:19  +  00:26:32=36,878 
166166 USATaylor PhinneyUSACannondale-Drapac Pro Cycling ..05:08:19  +  00:26:32=36,878 
167167 FRAChristophe LaporteFRACofidis – Solutions Crédits05:08:19  +  00:26:32=36,878 
168168 BELDimitri ClaeysFRACofidis – Solutions Crédits05:08:19  +  00:26:32=36,878 
169169 POLMichal KwiatkowskiGBRSky Procycling05:08:19  +  00:26:32=36,878 
170170 POLMaciej BodnarDEUBora–Hansgrohe05:08:19  +  00:26:32=36,878 
171171 FRAYohann GèneFRADirect Energie05:08:19  +  00:26:32=36,878 
172172 GERGianluca BrambillaBELQuick-Step Floors05:08:19  +  00:26:32=36,878 
173173 FRAThomas BoudatFRADirect Energie05:08:32  +  00:26:45=36,852 
174174 BELPieter VanspeybrouckBELWanty – Groupe Gobert05:08:32  +  00:26:45=36,852 
175175 ENGDaniel McLayFRAFortuneo - Vital Concept05:20:23  +  00:38:36=35,489 

Withdrawls: 1
 
Rider
Team
Reason
139  BELTim WellensBELLotto SoudalDid not finish
Todays birthdays.

1874  Achille Colas
1895  Lucien Meunier
1902  Lazare Venot
1915  Albert Gijsen
1924  Marcel Zelasco
1930  Juan Campillo
1931  Jean-Claude Skerl
1934  Jean Selic
1935  Arnaldo Pambianco
1955  Mario Beccia
1956  Daniel Willems
1957  Dominique Sanders
1959  Marc Sergeant
1960  Éric Caritoux
1963  Jelle Nijdam
1971  Arnaud Prétot
1980  Piet Rooijakkers